Latest Weather Observations for Dum In Mirrie

IDD60801

Issued at 5:35 pm CST Monday 1 September 2014 (issued every 30 minutes, with the page automatically refreshed every 10 minutes)

About weather observations | Map of weather stations | Latest weather observations for NT | Other Formats
Station Details ID: 014277 Name: DUM IN MIRRIE AIRSTRIP Lat: -12.63 Lon: 130.37 Height: 3.5 m
Data from the previous 72 hours. | See also: Recent months at Dum In Mirrie
Date/Time
CST
Temp
°C
App
Temp
°C
Dew
Point
Rel
Hum
%
Delta-T
°C
Wind Press
QNH
hPa
Press
MSL
hPa
Rain
since 9 am
mm
Dir
 
Spd
km/h
Gust
km/h
Spd
kts
Gust
kts
01/05:30pm 27.3 29.5 20.4 66 4.5 W 9 17 5 9 1011.2 1011.2 0.0
01/05:00pm 27.9 30.2 20.7 65 4.8 W 9 15 5 8 1011.0 1011.0 0.0
01/04:30pm 27.9 30.2 20.7 65 4.8 W 9 19 5 10 1011.0 1011.0 0.0
01/04:00pm 28.0 29.4 20.3 63 5.1 W 13 20 7 11 1011.1 1011.1 0.0
01/03:30pm 27.9 29.1 19.9 61 5.2 W 13 20 7 11 1011.2 1011.2 0.0
01/03:00pm 28.1 29.5 19.6 60 5.5 WNW 11 17 6 9 1011.4 1011.4 0.0
01/02:30pm 27.9 29.5 19.9 61 5.2 WNW 11 17 6 9 1011.7 1011.7 0.0
01/02:00pm 27.6 28.9 19.4 61 5.3 WNW 11 17 6 9 1012.3 1012.3 0.0
01/01:30pm 27.8 29.5 19.3 60 5.5 NW 9 19 5 10 1012.7 1012.7 0.0
01/01:00pm 28.3 29.2 19.2 57 5.9 NNW 13 20 7 11 1013.0 1013.0 0.0
01/12:30pm 28.2 29.7 18.9 57 6.0 N 9 17 5 9 1013.7 1013.7 0.0
01/12:00pm 28.4 29.7 18.5 55 6.3 N 9 17 5 9 1014.2 1014.2 0.0
01/11:30am 27.7 29.2 19.0 59 5.6 NNW 9 17 5 9 1014.5 1014.5 0.0
01/11:00am 28.4 29.9 18.8 56 6.2 N 9 15 5 8 1014.9 1014.9 0.0
01/10:30am 28.1 29.3 18.2 55 6.3 N 9 19 5 10 1015.2 1015.2 0.0
01/10:00am 27.0 28.5 18.0 58 5.7 NE 7 15 4 8 1015.4 1015.4 0.0
01/09:30am 27.0 28.8 18.8 60 5.2 NE 7 13 4 7 1015.5 1015.5 0.0
01/09:00am 25.9 28.9 20.9 74 3.3 E 6 9 3 5 1015.5 1015.5 0.0
01/08:30am 24.3 28.0 22.2 88 1.4 E 6 7 3 4 1015.5 1015.5 0.0
01/08:00am 22.6 27.1 22.3 98 0.2 E 2 4 1 2 1015.3 1015.3 0.0
01/07:30am 21.2 24.2 20.9 98 0.2 E 6 7 3 4 1015.2 1015.2 0.0
01/07:00am 18.6 20.6 17.8 95 0.5 E 4 6 2 3 1014.8 1014.8 0.0
01/06:30am 19.2 22.3 18.7 97 0.3 CALM 0 2 0 1 1014.3 1014.3 0.0
01/06:00am 20.0 22.4 19.7 98 0.2 E 6 7 3 4 1014.0 1014.0 0.0
01/05:30am 19.2 21.6 18.7 97 0.3 E 4 6 2 3 1013.7 1013.7 0.0
01/05:00am 19.0 21.2 18.3 96 0.4 E 4 6 2 3 1013.6 1013.6 0.0
01/04:30am 18.3 20.1 17.3 94 0.6 ENE 4 4 2 2 1013.2 1013.2 0.0
01/04:00am 18.2 20.2 17.0 93 0.7 NE 2 6 1 3 1012.9 1012.9 0.0
01/03:30am 19.1 21.9 17.9 93 0.7 CALM 0 0 0 0 1012.7 1012.7 0.0
01/03:00am 19.4 21.8 17.9 91 0.9 NE 2 4 1 2 1012.7 1012.7 0.0
01/02:30am 20.3 23.1 18.8 91 0.9 NE 2 4 1 2 1012.6 1012.6 0.0
01/02:00am 22.0 24.6 20.1 89 1.2 N 6 15 3 8 1012.4 1012.4 0.0
01/01:30am 23.2 26.7 21.1 88 1.4 WSW 4 9 2 5 1012.2 1012.2 0.0
01/01:00am 23.4 27.6 20.9 86 1.6 CALM 0 2 0 1 1012.3 1012.3 0.0
01/12:30am 23.7 27.4 20.8 84 1.9 SW 2 6 1 3 1012.3 1012.3 0.0
01/12:00am 23.8 27.3 20.3 81 2.3 WSW 2 6 1 3 1012.5 1012.5 0.0
 
Date/Time
CST
Temp
°C
App
Temp
°C
Dew
Point
Rel
Hum
%
Delta-T
°C
Wind Press
QNH
hPa
Press
MSL
hPa
Rain
since 9 am
mm
Dir
 
Spd
km/h
Gust
km/h
Spd
kts
Gust
kts
31/11:30pm 23.9 26.5 20.0 79 2.5 SW 6 9 3 5 1012.5 1012.5 0.0
31/11:00pm 24.0 27.3 19.9 78 2.6 SW 2 6 1 3 1012.7 1012.7 0.0
31/10:30pm 24.2 27.6 20.1 78 2.7 WSW 2 7 1 4 1012.7 1012.7 0.0
31/10:00pm 24.3 27.2 19.8 76 2.9 W 4 6 2 3 1012.7 1012.7 0.0
31/09:30pm 24.4 27.1 19.5 74 3.1 WSW 4 7 2 4 1012.6 1012.6 0.0
31/09:00pm 24.6 26.8 19.2 72 3.5 W 6 9 3 5 1012.4 1012.4 0.0
31/08:30pm 25.0 27.6 20.0 74 3.2 WSW 6 9 3 5 1012.1 1012.1 0.0
31/08:00pm 25.0 27.2 19.6 72 3.5 WSW 7 11 4 6 1011.8 1011.8 0.0
31/07:30pm 25.0 27.4 19.6 72 3.5 W 6 13 3 7 1011.3 1011.3 0.0
31/07:00pm 25.1 26.6 19.0 69 3.9 W 9 13 5 7 1011.0 1011.0 0.0
31/06:30pm 25.6 27.7 19.3 68 4.1 W 7 15 4 8 1010.5 1010.5 0.0
31/06:00pm 26.6 28.1 19.0 63 4.9 W 9 15 5 8 1010.4 1010.4 0.0
31/05:30pm 27.3 28.9 18.3 58 5.7 W 7 15 4 8 1010.4 1010.4 0.0
31/05:00pm 27.9 29.3 18.6 57 6.0 W 9 17 5 9 1010.3 1010.3 0.0
31/04:30pm 28.3 29.3 18.7 56 6.2 W 11 20 6 11 1010.3 1010.3 0.0
31/04:00pm 28.5 29.4 18.3 54 6.5 WNW 11 19 6 10 1010.3 1010.3 0.0
31/03:30pm 27.8 28.4 17.6 53 6.4 NW 11 19 6 10 1010.3 1010.3 0.0
31/03:00pm 28.0 28.4 18.1 55 6.3 WNW 13 22 7 12 1010.6 1010.6 0.0
31/02:30pm 28.5 29.6 18.9 56 6.2 WNW 11 17 6 9 1011.1 1011.1 0.0
31/02:00pm 27.7 28.9 19.0 59 5.6 WNW 11 20 6 11 1011.5 1011.5 0.0
31/01:30pm 28.3 28.8 18.4 55 6.3 NNW 13 22 7 12 1011.6 1011.6 0.0
31/01:00pm 28.3 28.9 18.7 56 6.2 NNW 13 19 7 10 1012.3 1012.3 0.0
31/12:30pm 28.1 28.9 19.1 58 5.8 N 13 19 7 10 1012.8 1012.8 0.0
31/12:00pm 28.8 30.5 18.6 54 6.6 ENE 7 19 4 10 1013.4 1013.4 0.0
31/11:30am 28.4 29.1 16.0 47 7.7 NNE 7 15 4 8 1014.1 1014.1 0.0
31/11:00am 28.0 28.5 16.6 50 7.1 NNE 9 17 5 9 1014.5 1014.5 0.0
31/10:30am 27.6 28.2 16.9 52 6.7 NE 9 17 5 9 1014.8 1014.8 0.0
31/10:00am 26.8 28.0 17.3 56 5.9 ENE 7 13 4 7 1015.0 1015.0 0.0
31/09:30am 27.0 29.0 19.1 62 5.1 ENE 7 13 4 7 1014.9 1014.9 0.0
31/09:00am 26.1 28.1 19.2 65 4.4 NE 7 11 4 6 1014.8 1014.8 0.0
31/08:30am 24.6 26.8 19.2 72 3.5 NE 6 9 3 5 1014.5 1014.5 0.0
31/08:00am 22.4 25.3 19.8 85 1.7 NE 4 7 2 4 1014.2 1014.2 0.0
31/07:30am 20.6 23.7 20.3 98 0.2 NE 4 6 2 3 1013.9 1013.9 0.0
31/07:00am 19.6 22.1 19.1 97 0.3 NE 4 6 2 3 1013.6 1013.6 0.0
31/06:30am 20.2 22.9 19.5 96 0.4 NE 4 6 2 3 1013.1 1013.1 0.0
31/06:00am 21.2 24.6 20.9 98 0.2 NE 4 4 2 2 1012.9 1012.9 0.0
31/05:30am 21.6 24.6 21.3 98 0.2 ENE 7 9 4 5 1012.8 1012.8 0.0
31/05:00am 21.4 24.5 21.1 98 0.2 ENE 6 9 3 5 1012.5 1012.5 0.0
31/04:30am 18.9 21.2 18.6 98 0.2 E 4 6 2 3 1012.3 1012.3 0.0
31/04:00am 17.8 19.4 17.0 95 0.5 E 4 6 2 3 1012.2 1012.2 0.0
31/03:30am 18.0 20.1 17.2 95 0.5 ENE 2 4 1 2 1012.1 1012.1 0.0
31/03:00am 18.3 19.8 17.7 96 0.4 NE 6 9 3 5 1012.3 1012.3 0.0
31/02:30am 19.9 22.2 19.4 97 0.3 ENE 6 11 3 6 1012.5 1012.5 0.0
31/02:00am 19.0 20.8 17.3 90 1.0 ENE 4 6 2 3 1012.7 1012.7 0.0
31/01:30am 20.8 22.8 18.7 88 1.3 NE 6 9 3 5 1012.7 1012.7 0.0
31/01:00am 22.5 25.8 20.0 86 1.6 SW 2 4 1 2 1012.5 1012.5 0.0
31/12:30am 23.1 25.9 20.4 85 1.7 SSW 6 9 3 5 1012.8 1012.8 0.0
31/12:00am 23.4 26.2 20.9 86 1.6 SW 7 11 4 6 1012.8 1012.8 0.0
 
Date/Time
CST
Temp
°C
App
Temp
°C
Dew
Point
Rel
Hum
%
Delta-T
°C
Wind Press
QNH
hPa
Press
MSL
hPa
Rain
since 9 am
mm
Dir
 
Spd
km/h
Gust
km/h
Spd
kts
Gust
kts
30/11:30pm 23.8 26.8 21.3 86 1.6 SSW 7 15 4 8 1013.0 1013.0 0.0
30/11:00pm 24.1 27.2 21.4 85 1.8 SSW 7 13 4 7 1013.0 1013.0 0.0
30/10:30pm 24.3 27.0 20.6 80 2.4 SW 7 11 4 6 1013.0 1013.0 0.0
30/10:00pm 24.4 27.1 20.3 78 2.7 SW 6 11 3 6 1013.0 1013.0 0.0
30/09:30pm 24.2 26.9 20.3 79 2.5 SSW 6 11 3 6 1013.1 1013.1 0.0
30/09:00pm 23.4 26.0 20.0 81 2.2 W 6 7 3 4 1012.8 1012.8 0.0
30/08:30pm 21.8 23.6 17.4 76 2.7 WNW 4 6 2 3 1012.5 1012.5 0.0
30/08:00pm 23.4 25.7 18.5 74 3.1 WNW 4 6 2 3 1012.1 1012.1 0.0
30/07:30pm 24.4 26.9 19.0 72 3.4 WNW 4 6 2 3 1011.9 1011.9 0.0
30/07:00pm 24.9 27.3 18.8 69 3.9 WNW 4 7 2 4 1011.7 1011.7 0.0
30/06:30pm 25.5 27.5 18.7 66 4.3 WNW 6 9 3 5 1011.6 1011.6 0.0
30/06:00pm 26.6 28.3 18.5 61 5.2 WNW 7 13 4 7 1011.2 1011.2 0.0
30/05:30pm 27.3 28.9 18.3 58 5.7 WNW 7 15 4 8 1010.9 1010.9 0.0
30/05:00pm 27.4 28.4 18.7 59 5.6 NW 11 17 6 9 1010.7 1010.7 0.0
30/04:30pm 27.9 29.1 18.3 56 6.1 WNW 9 15 5 8 1010.5 1010.5 0.0
30/04:00pm 28.0 29.3 18.4 56 6.1 WNW 9 17 5 9 1010.6 1010.6 0.0
30/03:30pm 27.9 28.2 17.1 51 6.8 W 11 19 6 10 1010.8 1010.8 0.0
30/03:00pm 28.5 29.2 18.0 53 6.7 NW 11 19 6 10 1011.0 1011.0 0.0
30/02:30pm 29.2 30.1 18.3 51 7.0 NNW 11 20 6 11 1011.3 1011.3 0.0
30/02:00pm 28.6 28.7 17.5 51 7.0 N 13 20 7 11 1011.8 1011.8 0.0
30/01:30pm 28.4 28.2 16.7 49 7.3 NNW 13 20 7 11 1012.4 1012.4 0.0
30/01:00pm 28.3 29.1 19.0 57 6.0 N 13 20 7 11 1013.1 1013.1 0.0
30/12:30pm 28.1 29.8 19.3 58 5.7 NW 9 17 5 9 1013.6 1013.6 0.0
30/12:00pm 27.7 29.4 18.4 57 5.9 N 7 13 4 7 1014.1 1014.1 0.0
30/11:30am 26.7 29.6 19.8 66 4.5 SW 4 7 2 4 1014.9 1014.9 0.0
30/11:00am 26.0 28.1 18.9 65 4.5 WSW 6 9 3 5 1015.4 1015.4 0.0
30/10:30am 25.7 27.6 18.9 66 4.3 WSW 7 11 4 6 1015.7 1015.7 0.0
30/10:00am 25.0 27.1 18.9 69 3.9 WSW 6 7 3 4 1015.7 1015.7 0.0
30/09:30am 24.4 26.5 19.0 72 3.4 WSW 6 7 3 4 1015.6 1015.6 0.0
30/09:00am 24.7 27.7 19.3 72 3.5 NNE 2 6 1 3 1015.4 1015.4 0.0
30/08:30am 21.9 25.1 20.4 91 1.0 ESE 4 4 2 2 1015.4 1015.4 0.0
30/08:00am 21.2 25.0 21.0 99 0.1 SE 2 6 1 3 1015.3 1015.3 0.0
30/07:30am 20.7 23.5 20.5 99 0.1 ENE 6 11 3 6 1014.8 1014.8 0.0
30/07:00am 20.6 23.1 20.3 98 0.2 E 7 11 4 6 1014.6 1014.6 0.0
30/06:30am 19.6 21.8 19.3 98 0.2 E 6 7 3 4 1014.1 1014.1 0.0
30/06:00am 18.9 21.6 18.6 98 0.2 ESE 2 4 1 2 1013.7 1013.7 0.0
30/05:30am 19.8 22.5 19.5 98 0.2 SSE 4 6 2 3 1013.5 1013.5 0.0
30/05:00am 18.4 20.5 18.1 98 0.2 SSE 4 7 2 4 1013.4 1013.4 0.0
30/04:30am 16.1 17.8 15.3 95 0.5 CALM 0 4 0 2 1013.3 1013.3 0.0
30/04:00am 16.3 18.0 15.3 94 0.6 CALM 0 0 0 0 1013.3 1013.3 0.0
30/03:30am 16.6 18.4 15.6 94 0.6 CALM 0 0 0 0 1013.3 1013.3 0.0
30/03:00am 17.2 19.2 16.1 93 0.7 CALM 0 0 0 0 1013.3 1013.3 0.0
30/02:30am 17.4 19.4 15.9 91 0.9 CALM 0 0 0 0 1013.5 1013.5 0.0
30/02:00am 18.3 20.5 16.6 90 1.0 CALM 0 4 0 2 1013.7 1013.7 0.0
30/01:30am 19.4 21.7 17.7 90 1.0 S 2 4 1 2 1014.1 1014.1 0.0
30/01:00am 21.4 24.3 19.9 91 1.0 SSW 4 7 2 4 1014.1 1014.1 0.0
30/12:30am 21.5 24.3 19.6 89 1.2 SW 4 6 2 3 1014.0 1014.0 0.0
30/12:00am 22.0 24.9 19.9 88 1.3 SW 4 7 2 4 1014.0 1014.0 0.0
 
Date/Time
CST
Temp
°C
App
Temp
°C
Dew
Point
Rel
Hum
%
Delta-T
°C
Wind Press
QNH
hPa
Press
MSL
hPa
Rain
since 9 am
mm
Dir
 
Spd
km/h
Gust
km/h
Spd
kts
Gust
kts
29/11:30pm 22.3 25.5 19.7 85 1.7 SW 2 4 1 2 1014.0 1014.0 0.0
29/11:00pm 22.8 25.7 19.8 83 1.9 SW 4 11 2 6 1014.1 1014.1 0.0
29/10:30pm 22.9 26.0 19.5 81 2.2 SW 2 4 1 2 1014.1 1014.1 0.0
29/10:00pm 23.4 26.6 19.8 80 2.3 WSW 2 6 1 3 1014.0 1014.0 0.0
29/09:30pm 23.9 26.5 19.2 75 3.0 W 4 9 2 5 1013.8 1013.8 0.0
29/09:00pm 23.9 26.0 19.4 76 2.9 W 7 13 4 7 1013.7 1013.7 0.0
29/08:30pm 22.6 25.5 19.9 85 1.7 W 4 6 2 3 1013.4 1013.4 0.0
29/08:00pm 22.2 24.8 18.4 79 2.4 WNW 2 6 1 3 1013.1 1013.1 0.0
29/07:30pm 23.7 26.4 19.4 77 2.8 WNW 4 6 2 3 1012.9 1012.9 0.0
29/07:00pm 24.2 26.6 19.7 76 2.9 WNW 6 7 3 4 1012.6 1012.6 0.0
29/06:30pm 25.1 27.3 19.2 70 3.8 W 6 9 3 5 1012.4 1012.4 0.0
29/06:00pm 26.3 28.8 19.9 68 4.2 W 6 11 3 6 1012.2 1012.2 0.0

Other Formats:

Comma delimited format used in spreadsheet applications
http://www.bom.gov.au/fwo/IDD60801/IDD60801.94116.axf

JavaScript Object Notation format (JSON) in row-major order
http://www.bom.gov.au/fwo/IDD60801/IDD60801.94116.json